Terminal Aerodrome Forecast
Issued by NWS

Home | Current Version | Previous Version | Text Only | Print | Product List | Glossary On
Versions: 1 2 3 4 5 6 7 8 9 10 11 12 13 14 15 16 17 18 19 20 21
000
FTUS41 KBTV 252320
TAFMPV
TAF
KMPV 252320Z 2600/2624 21005KT P6SM -SHRA OVC050
      TEMPO 2600/2602 5SM -RA BR BKN025
     FM260200 27006KT P6SM VCSH OVC060
     FM260700 29007KT P6SM VCSH OVC025
     FM261300 30011G22KT P6SM VCSH OVC025=

USA.gov is the U.S. government's official web portal to all federal, state and local government web resources and services.